createdAt,value
2019-01-14T00:01:33.366Z,98656.84
2019-01-14T00:04:04.210Z,98656.47
2019-01-14T00:06:34.990Z,98661.02
2019-01-14T00:09:08.430Z,98663.05
2019-01-14T00:11:39.439Z,98658.99
2019-01-14T00:14:10.423Z,98660.89
2019-01-14T00:16:41.802Z,98661.84
2019-01-14T00:19:14.085Z,98655.30
2019-01-14T00:21:45.159Z,98670.08
2019-01-14T00:24:16.013Z,98660.92
2019-01-14T00:26:47.247Z,98670.20
2019-01-14T00:29:18.236Z,98675.83
2019-01-14T00:31:49.112Z,98677.95
2019-01-14T00:34:20.162Z,98682.64
2019-01-14T00:36:50.937Z,98689.91
2019-01-14T00:39:21.934Z,98686.41
2019-01-14T00:41:53.082Z,98701.55
2019-01-14T00:44:23.831Z,98708.11
2019-01-14T00:46:54.749Z,98706.34
2019-01-14T00:49:25.747Z,98712.00
2019-01-14T00:51:57.117Z,98715.64
2019-01-14T00:54:28.113Z,98714.22
2019-01-14T00:56:58.946Z,98715.51
2019-01-14T00:59:29.958Z,98723.62
2019-01-14T01:02:00.810Z,98716.57
2019-01-14T01:04:31.811Z,98728.19
2019-01-14T01:07:02.832Z,98735.10
2019-01-14T01:09:33.599Z,98728.52
2019-01-14T01:12:04.696Z,98730.86
2019-01-14T01:14:35.542Z,98729.81
2019-01-14T01:17:06.371Z,98725.94
2019-01-14T01:19:37.129Z,98736.03
2019-01-14T01:22:07.883Z,98736.52
2019-01-14T01:24:38.802Z,98741.69
2019-01-14T01:27:09.556Z,98746.72
2019-01-14T01:29:41.216Z,98743.08
2019-01-14T01:32:11.943Z,98746.45
2019-01-14T01:34:42.708Z,98748.80
2019-01-14T01:37:15.339Z,98751.47
2019-01-14T01:39:47.178Z,98755.56
2019-01-14T01:42:18.081Z,98748.16
2019-01-14T01:44:48.945Z,98758.01
2019-01-14T01:47:19.809Z,98758.25
2019-01-14T01:49:50.921Z,98761.88
2019-01-14T01:52:22.003Z,98759.07
2019-01-14T01:54:53.230Z,98765.61
2019-01-14T01:57:24.404Z,98768.41
2019-01-14T01:59:55.345Z,98769.65
2019-01-14T02:02:26.457Z,98777.05
2019-01-14T02:04:58.247Z,98785.48
2019-01-14T02:07:29.115Z,98782.45
2019-01-14T02:09:59.999Z,98772.00
2019-01-14T02:12:30.845Z,98775.11
2019-01-14T02:15:01.906Z,98780.06
2019-01-14T02:17:33.103Z,98779.45
2019-01-14T02:20:04.652Z,98782.25
2019-01-14T02:22:37.187Z,98779.38
2019-01-14T02:25:08.975Z,98794.70
2019-01-14T02:27:40.783Z,98792.97
2019-01-14T02:30:14.956Z,98795.92
2019-01-14T02:32:45.805Z,98792.75
2019-01-14T02:35:17.679Z,98800.58
2019-01-14T02:37:49.022Z,98799.20
2019-01-14T02:40:21.758Z,98806.78
2019-01-14T02:42:52.918Z,98804.60
2019-01-14T02:45:23.725Z,98804.60
2019-01-14T02:47:54.731Z,98811.05
2019-01-14T02:50:25.600Z,98807.88
2019-01-14T02:52:56.549Z,98813.32
2019-01-14T02:55:27.715Z,98810.38
2019-01-14T02:57:58.745Z,98819.67
2019-01-14T03:00:29.630Z,98819.67
2019-01-14T03:03:01.289Z,98829.27
2019-01-14T03:05:32.471Z,98831.97
2019-01-14T03:08:04.037Z,98838.19
2019-01-14T03:10:34.848Z,98841.09
2019-01-14T03:13:05.765Z,98846.56
2019-01-14T03:15:36.857Z,98850.66
2019-01-14T03:18:07.703Z,98862.02
2019-01-14T03:20:39.781Z,98863.98
2019-01-14T03:23:10.900Z,98870.67
2019-01-14T03:25:41.728Z,98864.89
2019-01-14T03:28:13.188Z,98883.38
2019-01-14T03:30:44.343Z,98890.06
2019-01-14T03:33:15.653Z,98889.63
2019-01-14T03:35:47.060Z,98895.42
2019-01-14T03:38:18.080Z,98896.91
2019-01-14T03:40:49.174Z,98908.75
2019-01-14T03:43:20.799Z,98911.87
2019-01-14T03:45:52.165Z,98899.91
2019-01-14T03:48:23.323Z,98904.22
2019-01-14T03:50:54.685Z,98907.61
2019-01-14T03:53:26.064Z,98910.28
2019-01-14T03:55:56.943Z,98902.30
2019-01-14T03:58:27.808Z,98906.37
2019-01-14T04:00:58.678Z,98907.92
2019-01-14T04:03:29.530Z,98910.84
2019-01-14T04:06:00.630Z,98903.18
2019-01-14T04:08:31.801Z,98904.32
2019-01-14T04:11:02.837Z,98904.84
2019-01-14T04:13:33.613Z,98908.53
2019-01-14T04:16:05.185Z,98917.73
2019-01-14T04:18:36.277Z,98920.41
2019-01-14T04:21:07.074Z,98924.59
2019-01-14T04:23:37.925Z,98935.58
2019-01-14T04:26:08.790Z,98926.98
2019-01-14T04:28:39.819Z,98942.22
2019-01-14T04:31:10.689Z,98945.83
2019-01-14T04:33:41.468Z,98944.75
2019-01-14T04:36:12.337Z,98955.27
2019-01-14T04:38:43.629Z,98958.47
2019-01-14T04:41:14.490Z,98969.11
2019-01-14T04:43:45.340Z,98969.73
2019-01-14T04:46:16.209Z,98980.98
2019-01-14T04:48:47.350Z,98993.66
2019-01-14T04:51:18.168Z,98989.80
2019-01-14T04:53:49.183Z,98991.30
2019-01-14T04:56:20.214Z,98995.66
2019-01-14T04:58:51.377Z,98998.70
2019-01-14T05:01:22.172Z,98992.12
2019-01-14T05:03:53.182Z,99002.17
2019-01-14T05:06:24.050Z,99001.69
2019-01-14T05:08:54.899Z,99004.59
2019-01-14T05:11:25.877Z,99000.61
2019-01-14T05:13:56.722Z,99002.27
2019-01-14T05:16:27.820Z,99003.67
2019-01-14T05:18:58.602Z,99013.77
2019-01-14T05:21:29.783Z,99009.08
2019-01-14T05:24:00.722Z,99013.86
2019-01-14T05:26:31.528Z,99017.22
2019-01-14T05:29:02.392Z,99019.95
2019-01-14T05:31:33.274Z,99021.70
2019-01-14T05:34:04.553Z,99017.21
2019-01-14T05:36:35.445Z,99014.53
2019-01-14T05:39:08.635Z,99012.02
2019-01-14T05:41:39.496Z,99013.80
2019-01-14T05:44:10.409Z,99013.64
2019-01-14T05:46:41.773Z,99019.60
2019-01-14T05:49:12.552Z,99020.67
2019-01-14T05:51:43.434Z,99026.76
2019-01-14T05:54:15.677Z,99027.98
2019-01-14T05:56:46.841Z,99029.61
2019-01-14T05:59:17.878Z,99031.32
2019-01-14T06:01:48.919Z,99034.70
2019-01-14T06:04:19.943Z,99036.53
2019-01-14T06:06:52.026Z,99042.11
2019-01-14T06:09:22.888Z,99041.91
2019-01-14T06:11:53.858Z,99050.38
2019-01-14T06:14:24.949Z,99052.80
2019-01-14T06:16:55.816Z,99061.29
2019-01-14T06:19:29.580Z,99062.13
2019-01-14T06:22:00.450Z,99061.66
2019-01-14T06:24:31.537Z,99069.69
2019-01-14T06:27:02.418Z,99078.26
2019-01-14T06:29:33.488Z,99077.17
2019-01-14T06:32:04.834Z,99088.06
2019-01-14T06:34:35.691Z,99087.53
2019-01-14T06:37:06.800Z,99088.98
2019-01-14T06:39:37.576Z,99093.52
2019-01-14T06:42:08.539Z,99099.92
2019-01-14T06:44:39.551Z,99098.55
2019-01-14T06:47:10.355Z,99105.73
2019-01-14T06:49:41.363Z,99112.03
2019-01-14T06:52:12.530Z,99114.93
2019-01-14T06:54:43.676Z,99114.39
2019-01-14T06:57:14.567Z,99126.78
2019-01-14T06:59:45.426Z,99126.78
2019-01-14T07:02:16.300Z,99132.94
2019-01-14T07:04:47.231Z,99132.90
2019-01-14T07:07:18.122Z,99141.85
2019-01-14T07:09:49.218Z,99137.23
2019-01-14T07:12:20.432Z,99139.59
2019-01-14T07:14:51.285Z,99141.26
2019-01-14T07:17:22.309Z,99152.29
2019-01-14T07:19:53.405Z,99151.25
2019-01-14T07:22:24.207Z,99159.16
2019-01-14T07:24:55.062Z,99168.44
2019-01-14T07:27:25.875Z,99172.42
2019-01-14T07:29:56.927Z,99173.25
2019-01-14T07:32:27.727Z,99169.22
2019-01-14T07:34:58.511Z,99172.30
2019-01-14T07:37:29.912Z,99176.63
2019-01-14T07:40:00.927Z,99183.78
2019-01-14T07:42:31.806Z,99185.53
2019-01-14T07:45:02.760Z,99189.65
2019-01-14T07:47:34.534Z,99190.23
2019-01-14T07:50:06.417Z,99196.05
2019-01-14T07:52:37.448Z,99199.80
2019-01-14T07:55:08.477Z,99204.05
2019-01-14T07:57:39.576Z,99209.58
2019-01-14T08:00:22.463Z,99212.66
2019-01-14T08:02:54.330Z,99215.45
2019-01-14T08:05:26.321Z,99214.67
2019-01-14T08:07:57.133Z,99221.12
2019-01-14T08:10:28.156Z,99223.70
2019-01-14T08:12:58.964Z,99229.80
2019-01-14T08:15:29.991Z,99239.46
2019-01-14T08:18:00.827Z,99246.42
2019-01-14T08:20:31.852Z,99250.75
2019-01-14T08:23:02.717Z,99253.91
2019-01-14T08:25:33.734Z,99259.78
2019-01-14T08:28:04.682Z,99265.62
2019-01-14T08:30:36.745Z,99261.70
2019-01-14T08:33:07.867Z,99261.81
2019-01-14T08:35:38.931Z,99270.06
2019-01-14T08:38:09.847Z,99263.66
2019-01-14T08:40:40.630Z,99272.34
2019-01-14T08:43:11.690Z,99279.51
2019-01-14T08:45:42.543Z,99276.76
2019-01-14T08:48:14.022Z,99280.75
2019-01-14T08:50:44.831Z,99281.09
2019-01-14T08:53:15.653Z,99285.33
2019-01-14T08:55:46.732Z,99278.45
2019-01-14T08:58:17.613Z,99281.55
2019-01-14T09:00:48.405Z,99295.82
2019-01-14T09:03:19.630Z,99296.28
2019-01-14T09:05:50.684Z,99298.86
2019-01-14T09:08:28.493Z,99297.74
2019-01-14T09:10:54.621Z,99304.53
2019-01-14T09:13:25.559Z,99298.25
2019-01-14T09:15:56.665Z,99287.01
2019-01-14T09:18:27.835Z,99291.05
2019-01-14T09:20:59.075Z,99295.63
2019-01-14T09:23:30.005Z,99303.00
2019-01-14T09:26:00.873Z,99291.97
2019-01-14T09:28:31.814Z,99303.89
2019-01-14T09:31:02.780Z,99307.30
2019-01-14T09:33:33.895Z,99306.12
2019-01-14T09:36:04.972Z,99306.45
2019-01-14T09:38:36.195Z,99305.63
2019-01-14T09:41:06.982Z,99303.67
2019-01-14T09:43:38.021Z,99296.42
2019-01-14T09:46:08.883Z,99306.45
2019-01-14T09:48:39.757Z,99302.80
2019-01-14T09:51:10.685Z,99291.87
2019-01-14T09:53:41.547Z,99295.55
2019-01-14T09:56:12.400Z,99296.92
2019-01-14T09:58:43.269Z,99309.67
2019-01-14T10:01:14.352Z,99309.49
2019-01-14T10:03:45.336Z,99305.70
2019-01-14T10:06:16.197Z,99302.45
2019-01-14T10:08:47.087Z,99301.83
2019-01-14T10:11:18.908Z,99299.11
2019-01-14T10:13:49.794Z,99300.59
2019-01-14T10:16:20.658Z,99298.20
2019-01-14T10:18:51.702Z,99294.52
2019-01-14T10:21:22.715Z,99299.75
2019-01-14T10:23:53.744Z,99294.02
2019-01-14T10:26:24.908Z,99299.06
2019-01-14T10:28:55.696Z,99299.25
2019-01-14T10:31:26.701Z,99290.78
2019-01-14T10:33:57.865Z,99298.14
2019-01-14T10:36:28.887Z,99291.47
2019-01-14T10:39:00.785Z,99298.00
2019-01-14T10:41:33.224Z,99290.16
2019-01-14T10:44:04.191Z,99298.46
2019-01-14T10:46:35.279Z,99295.42
2019-01-14T10:49:07.025Z,99297.55
2019-01-14T10:51:37.895Z,99304.67
2019-01-14T10:54:08.991Z,99300.17
2019-01-14T10:56:43.936Z,99305.25
2019-01-14T10:59:12.629Z,99346.59
2019-01-14T11:01:43.496Z,99351.05
2019-01-14T11:04:14.842Z,99365.03
2019-01-14T11:06:45.605Z,99369.81
2019-01-14T11:09:16.996Z,99377.20
2019-01-14T11:11:47.858Z,99384.39
2019-01-14T11:14:19.001Z,99385.30
2019-01-14T11:16:49.856Z,99382.17
2019-01-14T11:19:20.784Z,99393.02
2019-01-14T11:21:51.699Z,99403.16
2019-01-14T11:24:22.729Z,99399.83
2019-01-14T11:26:53.588Z,99404.53
2019-01-14T11:29:24.378Z,99404.63
2019-01-14T11:31:55.460Z,99411.17
2019-01-14T11:34:26.445Z,99412.00
2019-01-14T11:36:57.227Z,99415.75
2019-01-14T11:39:28.018Z,99411.62
2019-01-14T11:41:59.033Z,99406.65
2019-01-14T11:44:29.904Z,99415.30
2019-01-14T11:47:00.756Z,99428.56
2019-01-14T11:49:31.563Z,99440.62
2019-01-14T11:52:02.588Z,99432.88
2019-01-14T11:54:33.614Z,99428.38
2019-01-14T11:57:04.625Z,99426.17
2019-01-14T11:59:35.424Z,99427.09
2019-01-14T12:02:06.589Z,99433.72
2019-01-14T12:04:37.865Z,99450.29
2019-01-14T12:07:08.739Z,99454.77
2019-01-14T12:09:39.560Z,99461.86
2019-01-14T12:12:10.580Z,99458.55
2019-01-14T12:14:41.447Z,99455.40
2019-01-14T12:17:12.297Z,99452.63
2019-01-14T12:19:43.337Z,99459.20
2019-01-14T12:22:14.571Z,99467.77
2019-01-14T12:24:45.688Z,99466.48
2019-01-14T12:27:16.474Z,99474.41
2019-01-14T12:29:47.351Z,99475.96
2019-01-14T12:32:18.400Z,99468.15
2019-01-14T12:34:49.970Z,99478.09
2019-01-14T12:37:21.065Z,99480.09
2019-01-14T12:39:52.206Z,99475.66
2019-01-14T12:42:23.310Z,99476.69
2019-01-14T12:44:54.186Z,99474.94
2019-01-14T12:47:25.042Z,99479.00
2019-01-14T12:49:56.885Z,99473.45
2019-01-14T12:52:27.976Z,99481.58
2019-01-14T12:54:59.009Z,99485.90
2019-01-14T12:57:30.100Z,99492.83
2019-01-14T13:00:01.262Z,99496.59
2019-01-14T13:02:32.366Z,99497.25
2019-01-14T13:05:04.212Z,99500.98
2019-01-14T13:07:35.385Z,99503.19
2019-01-14T13:10:06.662Z,99505.77
2019-01-14T13:12:37.762Z,99500.97
2019-01-14T13:15:13.527Z,99500.80
2019-01-14T13:17:44.345Z,99504.58
2019-01-14T13:20:15.798Z,99505.52
2019-01-14T13:22:46.783Z,99511.78
2019-01-14T13:25:18.130Z,99516.95
2019-01-14T13:27:49.341Z,99524.40
2019-01-14T13:30:22.470Z,99537.75
2019-01-14T13:32:53.637Z,99535.25
2019-01-14T13:35:25.004Z,99543.63
2019-01-14T13:37:56.055Z,99543.63
2019-01-14T13:40:27.148Z,99551.03
2019-01-14T13:42:59.306Z,99549.74
2019-01-14T13:45:30.204Z,99551.94
2019-01-14T13:48:01.318Z,99563.55
2019-01-14T13:50:32.198Z,99569.73
2019-01-14T13:53:03.215Z,99580.97
2019-01-14T13:55:34.327Z,99578.39
2019-01-14T13:58:05.294Z,99586.78
2019-01-14T14:00:37.436Z,99593.61
2019-01-14T14:03:08.276Z,99596.83
2019-01-14T14:05:39.073Z,99587.42
2019-01-14T14:08:09.930Z,99597.63
2019-01-14T14:10:40.802Z,99598.92
2019-01-14T14:13:11.582Z,99604.11
2019-01-14T14:15:42.825Z,99608.71
2019-01-14T14:18:13.919Z,99599.11
2019-01-14T14:20:45.336Z,99608.69
2019-01-14T14:23:16.100Z,99611.38
2019-01-14T14:25:47.013Z,99612.77
2019-01-14T14:28:18.024Z,99615.16
2019-01-14T14:30:49.236Z,99605.94
2019-01-14T14:33:20.022Z,99605.03
2019-01-14T14:35:50.953Z,99622.38
2019-01-14T14:38:21.980Z,99630.47
2019-01-14T14:40:53.142Z,99636.53
2019-01-14T14:43:24.239Z,99645.66
2019-01-14T14:45:55.097Z,99647.04
2019-01-14T14:48:26.103Z,99650.63
2019-01-14T14:50:56.969Z,99649.39
2019-01-14T14:53:27.743Z,99659.50
2019-01-14T14:55:58.848Z,99661.45
2019-01-14T14:58:29.889Z,99668.81
2019-01-14T15:01:01.056Z,99677.00
2019-01-14T15:03:32.180Z,99690.06
2019-01-14T15:06:02.964Z,99684.91
2019-01-14T15:08:33.979Z,99689.66
2019-01-14T15:11:04.949Z,99688.47
2019-01-14T15:13:35.805Z,99693.00
2019-01-14T15:16:06.673Z,99699.27
2019-01-14T15:18:37.520Z,99705.92
2019-01-14T15:21:08.313Z,99708.58
2019-01-14T15:23:39.654Z,99712.78
2019-01-14T15:26:10.922Z,99720.22
2019-01-14T15:28:42.359Z,99728.61
2019-01-14T15:31:13.544Z,99731.14
2019-01-14T15:33:44.564Z,99741.84
2019-01-14T15:36:15.616Z,99742.72
2019-01-14T15:38:46.705Z,99750.67
2019-01-14T15:41:17.811Z,99757.50
2019-01-14T15:43:48.587Z,99751.73
2019-01-14T15:46:19.784Z,99759.63
2019-01-14T15:48:51.008Z,99756.98
2019-01-14T15:51:22.198Z,99757.76
2019-01-14T15:53:53.047Z,99762.26
2019-01-14T15:56:24.051Z,99763.41
2019-01-14T15:58:54.944Z,99765.84
2019-01-14T16:01:25.805Z,99777.33
2019-01-14T16:03:56.595Z,99782.47
2019-01-14T16:06:27.673Z,99786.27
2019-01-14T16:08:58.465Z,99791.01
2019-01-14T16:11:29.486Z,99803.87
2019-01-14T16:14:00.581Z,99809.02
2019-01-14T16:16:31.768Z,99816.14
2019-01-14T16:19:02.941Z,99824.31
2019-01-14T16:21:34.949Z,99836.13
2019-01-14T16:24:05.952Z,99838.82
2019-01-14T16:26:37.972Z,99850.12
2019-01-14T16:29:08.912Z,99853.52
2019-01-14T16:31:39.926Z,99861.47
2019-01-14T16:34:10.712Z,99865.56
2019-01-14T16:36:41.663Z,99861.78
2019-01-14T16:39:12.760Z,99868.38
2019-01-14T16:41:43.769Z,99870.03
2019-01-14T16:44:14.632Z,99881.41
2019-01-14T16:46:45.462Z,99884.58
2019-01-14T16:49:16.569Z,99887.06
2019-01-14T16:51:47.352Z,99892.57
2019-01-14T16:54:18.221Z,99894.40
2019-01-14T16:56:49.365Z,99898.20
2019-01-14T16:59:20.232Z,99897.36
2019-01-14T17:01:51.257Z,99904.30
2019-01-14T17:04:22.296Z,99908.45
2019-01-14T17:06:53.242Z,99915.97
2019-01-14T17:09:24.024Z,99915.24
2019-01-14T17:11:55.050Z,99916.83
2019-01-14T17:14:26.273Z,99916.57
2019-01-14T17:16:57.311Z,99923.97
2019-01-14T17:19:28.236Z,99930.33
2019-01-14T17:21:59.124Z,99940.36
2019-01-14T17:24:30.229Z,99944.21
2019-01-14T17:27:01.100Z,99941.05
2019-01-14T17:29:32.130Z,99949.84
2019-01-14T17:32:02.988Z,99956.34
2019-01-14T17:34:33.790Z,99961.23
2019-01-14T17:37:04.874Z,99967.39
2019-01-14T17:39:35.740Z,99971.64
2019-01-14T17:42:06.959Z,99973.69
2019-01-14T17:44:37.733Z,99971.52
2019-01-14T17:47:08.720Z,99979.05
2019-01-14T17:49:39.758Z,99984.57
2019-01-14T17:52:10.963Z,100003.57
2019-01-14T17:54:45.530Z,99998.54
2019-01-14T17:57:16.427Z,100007.52
2019-01-14T17:59:47.569Z,100012.53
2019-01-14T18:02:18.776Z,100009.20
2019-01-14T18:04:49.898Z,100013.38
2019-01-14T18:07:21.154Z,100014.23
2019-01-14T18:09:52.188Z,100027.92
2019-01-14T18:12:23.128Z,100033.70
2019-01-14T18:14:54.231Z,100041.58
2019-01-14T18:17:25.271Z,100046.81
2019-01-14T18:19:56.150Z,100048.09
2019-01-14T18:22:27.000Z,100053.27
2019-01-14T18:24:58.202Z,100060.91
2019-01-14T18:27:29.317Z,100053.72
2019-01-14T18:30:00.695Z,100055.44
2019-01-14T18:32:32.441Z,100070.53
2019-01-14T18:35:03.570Z,100069.10
2019-01-14T18:37:34.534Z,100073.45
2019-01-14T18:40:07.304Z,100073.94
2019-01-14T18:42:38.316Z,100074.44
2019-01-14T18:45:11.625Z,100069.92
2019-01-14T18:47:42.762Z,100077.91
2019-01-14T18:50:16.032Z,100074.78
2019-01-14T18:52:46.905Z,100082.61
2019-01-14T18:55:17.989Z,100090.00
2019-01-14T18:57:49.427Z,100088.12
2019-01-14T19:00:22.188Z,100092.13
2019-01-14T19:02:53.380Z,100091.33
2019-01-14T19:05:24.565Z,100094.39
2019-01-14T19:07:55.713Z,100098.56
2019-01-14T19:10:26.552Z,100100.83
2019-01-14T19:12:57.659Z,100103.88
2019-01-14T19:15:29.152Z,100097.59
2019-01-14T19:18:00.053Z,100109.58
2019-01-14T19:20:30.923Z,100108.86
2019-01-14T19:23:02.044Z,100117.98
2019-01-14T19:25:32.974Z,100118.99
2019-01-14T19:28:04.033Z,100117.27
2019-01-14T19:30:35.205Z,100111.85
2019-01-14T19:33:18.641Z,100116.75
2019-01-14T19:35:56.022Z,100122.68
2019-01-14T19:38:27.114Z,100121.77
2019-01-14T19:43:41.097Z,100134.70
2019-01-14T19:46:11.978Z,100128.13
2019-01-14T19:48:42.932Z,100125.17
2019-01-14T19:51:14.104Z,100127.61
2019-01-14T19:53:44.950Z,100131.56
2019-01-14T19:56:15.885Z,100127.84
2019-01-14T19:58:47.283Z,100134.31
2019-01-14T20:01:18.378Z,100138.23
2019-01-14T20:03:49.676Z,100148.17
2019-01-14T20:06:20.820Z,100152.86
2019-01-14T20:08:51.838Z,100162.36
2019-01-14T20:11:22.649Z,100167.94
2019-01-14T20:13:53.742Z,100172.48
2019-01-14T20:16:24.922Z,100180.94
2019-01-14T20:18:56.091Z,100189.95
2019-01-14T20:21:27.397Z,100189.70
2019-01-14T20:23:58.174Z,100194.45
2019-01-14T20:26:29.048Z,100203.10
2019-01-14T20:29:00.605Z,100196.36
2019-01-14T20:31:31.472Z,100191.98
2019-01-14T20:34:02.507Z,100192.80
2019-01-14T20:36:33.427Z,100190.45
2019-01-14T20:39:08.151Z,100193.12
2019-01-14T20:41:39.473Z,100192.98
2019-01-14T20:44:11.531Z,100194.91
2019-01-14T20:46:42.650Z,100191.61
2019-01-14T20:49:13.763Z,100196.63
2019-01-14T20:51:44.580Z,100198.61
2019-01-14T20:54:15.872Z,100200.70
2019-01-14T20:56:47.420Z,100205.28
2019-01-14T20:59:18.394Z,100195.33
2019-01-14T21:01:49.377Z,100190.29
2019-01-14T21:04:20.350Z,100194.91
2019-01-14T21:06:51.481Z,100184.17
2019-01-14T21:09:22.725Z,100185.64
2019-01-14T21:11:54.148Z,100189.67
2019-01-14T21:14:24.967Z,100189.17
2019-01-14T21:16:55.940Z,100193.78
2019-01-14T21:19:26.761Z,100194.92
2019-01-14T21:21:57.727Z,100199.50
2019-01-14T21:24:28.773Z,100197.88
2019-01-14T21:27:00.042Z,100202.50
2019-01-14T21:29:31.434Z,100203.30
2019-01-14T21:32:02.462Z,100203.30
2019-01-14T21:34:33.426Z,100210.67
2019-01-14T21:37:04.626Z,100213.97
2019-01-14T21:39:35.808Z,100217.01
2019-01-14T21:42:07.913Z,100216.34
2019-01-14T21:44:39.031Z,100219.98
2019-01-14T21:47:10.989Z,100225.59
2019-01-14T21:49:41.802Z,100232.58
2019-01-14T21:52:12.694Z,100229.31
2019-01-14T21:54:43.502Z,100245.26
2019-01-14T21:57:14.427Z,100242.69
2019-01-14T21:59:45.810Z,100234.04
2019-01-14T22:02:17.152Z,100230.92
2019-01-14T22:04:48.060Z,100229.41
2019-01-14T22:07:19.038Z,100226.41
2019-01-14T22:09:49.928Z,100235.39
2019-01-14T22:12:21.575Z,100236.38
2019-01-14T22:14:52.626Z,100236.13
2019-01-14T22:17:23.755Z,100239.42
2019-01-14T22:19:55.073Z,100239.79
2019-01-14T22:22:25.997Z,100255.62
2019-01-14T22:24:58.004Z,100255.55
2019-01-14T22:27:28.824Z,100264.61
2019-01-14T22:29:59.622Z,100264.90
2019-01-14T22:32:30.827Z,100264.68
2019-01-14T22:35:01.957Z,100269.48
2019-01-14T22:37:32.848Z,100267.80
2019-01-14T22:40:04.556Z,100270.78
2019-01-14T22:42:35.792Z,100266.97
2019-01-14T22:45:06.863Z,100269.83
2019-01-14T22:47:38.118Z,100279.33
2019-01-14T22:50:11.590Z,100282.39
2019-01-14T22:52:42.631Z,100278.88
2019-01-14T22:55:13.499Z,100279.92
2019-01-14T22:57:44.687Z,100282.48
2019-01-14T23:00:46.907Z,100283.73
2019-01-14T23:03:19.702Z,100285.50
2019-01-14T23:05:50.728Z,100285.33
2019-01-14T23:08:22.116Z,100297.45
2019-01-14T23:10:53.038Z,100298.95
2019-01-14T23:13:23.917Z,100298.34
2019-01-14T23:15:55.976Z,100304.36
2019-01-14T23:18:26.957Z,100299.06
2019-01-14T23:20:57.976Z,100307.17
2019-01-14T23:23:29.154Z,100306.55
2019-01-14T23:25:59.942Z,100307.06
2019-01-14T23:28:30.983Z,100314.48
2019-01-14T23:31:01.860Z,100318.33
2019-01-14T23:33:32.834Z,100319.21
2019-01-14T23:36:04.028Z,100324.23
2019-01-14T23:38:35.214Z,100315.48
2019-01-14T23:41:06.309Z,100315.81
2019-01-14T23:43:37.335Z,100317.73
2019-01-14T23:46:08.260Z,100323.91
2019-01-14T23:48:39.127Z,100323.75
2019-01-14T23:51:10.208Z,100323.46
2019-01-14T23:53:41.320Z,100336.13
2019-01-14T23:56:12.677Z,100330.78
2019-01-14T23:58:43.715Z,100334.52
